createdAt,value
2016-11-04T00:00:12.700Z,0
2016-11-04T00:00:53.207Z,0
2016-11-04T00:01:33.668Z,0
2016-11-04T00:02:14.158Z,0
2016-11-04T00:02:54.633Z,0
2016-11-04T00:03:35.120Z,0
2016-11-04T00:04:15.616Z,0
2016-11-04T00:04:56.114Z,0
2016-11-04T00:05:36.610Z,0
2016-11-04T00:06:17.086Z,0
2016-11-04T00:06:57.553Z,0
2016-11-04T00:07:38.047Z,0
2016-11-04T00:08:18.495Z,0
2016-11-04T00:08:58.971Z,0
2016-11-04T00:09:39.457Z,0
2016-11-04T00:10:19.966Z,0
2016-11-04T00:11:00.441Z,0
2016-11-04T00:11:40.951Z,0
2016-11-04T00:12:21.428Z,0
2016-11-04T00:13:01.913Z,0
2016-11-04T00:13:42.402Z,0
2016-11-04T00:14:22.903Z,0
2016-11-04T00:15:03.372Z,0
2016-11-04T00:15:43.896Z,0
2016-11-04T00:16:24.366Z,0
2016-11-04T00:17:04.871Z,0
2016-11-04T00:17:45.487Z,0
2016-11-04T00:18:25.961Z,0
2016-11-04T00:19:06.465Z,0
2016-11-04T00:19:46.904Z,0
2016-11-04T00:20:27.409Z,0
2016-11-04T00:21:07.918Z,0
2016-11-04T00:21:48.414Z,0
2016-11-04T00:22:28.876Z,0
2016-11-04T00:23:09.361Z,0
2016-11-04T00:23:49.827Z,0
2016-11-04T00:24:30.311Z,0
2016-11-04T00:25:10.782Z,0
2016-11-04T00:25:51.266Z,0
2016-11-04T00:26:31.755Z,0
2016-11-04T00:27:12.252Z,0
2016-11-04T00:27:52.713Z,0
2016-11-04T00:28:33.192Z,0
2016-11-04T00:29:13.643Z,0
2016-11-04T00:29:54.120Z,0
2016-11-04T00:30:34.651Z,0
2016-11-04T00:31:15.130Z,0
2016-11-04T00:31:55.665Z,0
2016-11-04T00:32:36.149Z,0
2016-11-04T00:33:16.635Z,0
2016-11-04T00:33:57.110Z,0
2016-11-04T00:34:37.589Z,0
2016-11-04T00:35:18.065Z,0
2016-11-04T00:35:58.578Z,0
2016-11-04T00:36:39.060Z,0
2016-11-04T00:37:19.556Z,0
2016-11-04T00:38:00.023Z,0
2016-11-04T00:38:40.544Z,0
2016-11-04T00:39:21.005Z,0
2016-11-04T00:40:01.465Z,0
2016-11-04T00:40:41.965Z,0
2016-11-04T00:41:22.443Z,0
2016-11-04T00:42:02.936Z,0
2016-11-04T00:42:43.409Z,0
2016-11-04T00:43:23.884Z,0
2016-11-04T00:44:04.362Z,0
2016-11-04T00:44:44.840Z,0
2016-11-04T00:45:25.301Z,0
2016-11-04T00:46:05.803Z,0
2016-11-04T00:46:46.300Z,0
2016-11-04T00:47:26.792Z,0
2016-11-04T00:48:07.280Z,0
2016-11-04T00:48:47.729Z,0
2016-11-04T00:49:28.223Z,0
2016-11-04T00:50:08.711Z,0
2016-11-04T00:50:49.214Z,0
2016-11-04T00:51:29.695Z,0
2016-11-04T00:52:10.201Z,0
2016-11-04T00:52:50.640Z,0
2016-11-04T00:53:31.162Z,0
2016-11-04T00:54:11.649Z,0
2016-11-04T00:54:52.134Z,0
2016-11-04T00:55:32.632Z,0
2016-11-04T00:56:13.102Z,0
2016-11-04T00:56:53.589Z,0
2016-11-04T00:57:34.093Z,0
2016-11-04T00:58:14.596Z,0
2016-11-04T00:58:55.060Z,0
2016-11-04T00:59:35.549Z,0
2016-11-04T01:00:16.056Z,0
2016-11-04T01:00:56.510Z,0
2016-11-04T01:01:37.004Z,0
2016-11-04T01:02:17.488Z,0
2016-11-04T01:02:57.973Z,0
2016-11-04T01:03:38.431Z,0
2016-11-04T01:04:18.922Z,0
2016-11-04T01:04:59.418Z,0
2016-11-04T01:05:39.927Z,0
2016-11-04T01:06:20.409Z,0
2016-11-04T01:07:00.889Z,0
2016-11-04T01:07:41.386Z,0
2016-11-04T01:08:21.874Z,0
2016-11-04T01:09:02.344Z,0
2016-11-04T01:09:42.830Z,0
2016-11-04T01:10:23.342Z,0
2016-11-04T01:11:03.849Z,0
2016-11-04T01:11:44.380Z,0
2016-11-04T01:12:24.850Z,0
2016-11-04T01:13:05.343Z,0
2016-11-04T01:13:45.813Z,0
2016-11-04T01:14:26.283Z,0
2016-11-04T01:15:06.773Z,0
2016-11-04T01:15:47.271Z,0
2016-11-04T01:16:27.733Z,0
2016-11-04T01:17:08.215Z,0
2016-11-04T01:17:48.714Z,0
2016-11-04T01:18:29.188Z,0
2016-11-04T01:19:09.692Z,0
2016-11-04T01:19:50.206Z,0
2016-11-04T01:20:30.684Z,0
2016-11-04T01:21:11.185Z,0
2016-11-04T01:21:51.721Z,0
2016-11-04T01:22:32.159Z,0
2016-11-04T01:23:12.648Z,0
2016-11-04T01:23:53.106Z,0
2016-11-04T01:24:33.601Z,0
2016-11-04T01:25:14.050Z,0
2016-11-04T01:25:54.524Z,0
2016-11-04T01:26:35.014Z,0
2016-11-04T01:27:15.485Z,0
2016-11-04T01:27:55.962Z,0
2016-11-04T01:28:36.445Z,0
2016-11-04T01:29:16.918Z,0
2016-11-04T01:29:57.419Z,0
2016-11-04T01:30:37.917Z,0
2016-11-04T01:31:18.388Z,0
2016-11-04T01:31:58.873Z,0
2016-11-04T01:32:39.371Z,0
2016-11-04T01:33:19.842Z,0
2016-11-04T01:34:00.322Z,0
2016-11-04T01:34:40.771Z,0
2016-11-04T01:35:21.327Z,0
2016-11-04T01:36:01.783Z,0
2016-11-04T01:36:42.260Z,0
2016-11-04T01:37:22.739Z,0
2016-11-04T01:38:03.228Z,0
2016-11-04T01:38:43.732Z,0
2016-11-04T01:39:24.214Z,0
2016-11-04T01:40:04.765Z,0
2016-11-04T01:40:45.224Z,0
2016-11-04T01:41:25.716Z,0
2016-11-04T01:42:06.208Z,0
2016-11-04T01:42:46.698Z,0
2016-11-04T01:43:27.161Z,0
2016-11-04T01:44:07.686Z,0
2016-11-04T01:44:48.178Z,0
2016-11-04T01:45:28.626Z,0
2016-11-04T01:46:09.188Z,0
2016-11-04T01:46:49.668Z,0
2016-11-04T01:47:30.154Z,0
2016-11-04T01:48:10.630Z,0
2016-11-04T01:48:51.121Z,0
2016-11-04T01:49:31.622Z,0
2016-11-04T01:50:12.103Z,0
2016-11-04T01:50:52.574Z,0
2016-11-04T01:51:33.045Z,0
2016-11-04T01:52:13.566Z,0
2016-11-04T01:52:54.024Z,0
2016-11-04T01:53:34.575Z,0
2016-11-04T01:54:15.053Z,0
2016-11-04T01:54:55.533Z,0
2016-11-04T01:55:35.993Z,0
2016-11-04T01:56:16.482Z,0
2016-11-04T01:56:56.964Z,0
2016-11-04T01:57:37.456Z,0
2016-11-04T01:58:17.952Z,0
2016-11-04T01:58:58.430Z,0
2016-11-04T01:59:38.893Z,0
2016-11-04T02:00:19.359Z,0
2016-11-04T02:00:59.868Z,0
2016-11-04T02:01:40.340Z,0
2016-11-04T02:02:20.808Z,0
2016-11-04T02:03:01.328Z,0
2016-11-04T02:03:41.792Z,0
2016-11-04T02:04:22.317Z,0
2016-11-04T02:05:02.767Z,0
2016-11-04T02:05:43.256Z,0
2016-11-04T02:06:23.742Z,0
2016-11-04T02:07:04.248Z,0
2016-11-04T02:07:44.688Z,0
2016-11-04T02:08:25.135Z,0
2016-11-04T02:09:05.670Z,0
2016-11-04T02:09:46.134Z,0
2016-11-04T02:10:26.610Z,0
2016-11-04T02:11:07.103Z,0
2016-11-04T02:11:47.607Z,0
2016-11-04T02:12:28.038Z,0
2016-11-04T02:13:08.567Z,0
2016-11-04T02:13:49.037Z,0
2016-11-04T02:14:29.523Z,0
2016-11-04T02:15:10.007Z,0
2016-11-04T02:15:50.484Z,0
2016-11-04T02:16:31.001Z,0
2016-11-04T02:17:11.477Z,0
2016-11-04T02:17:51.996Z,0
2016-11-04T02:18:32.509Z,0
2016-11-04T02:19:13.011Z,0
2016-11-04T02:19:53.487Z,0
2016-11-04T02:20:34.006Z,0
2016-11-04T02:21:14.526Z,0
2016-11-04T02:21:55.009Z,0
2016-11-04T02:22:35.494Z,0
2016-11-04T02:23:16.021Z,0
2016-11-04T02:23:56.475Z,0
2016-11-04T02:24:36.949Z,0
2016-11-04T02:25:17.437Z,0
2016-11-04T02:25:57.920Z,0
2016-11-04T02:26:38.408Z,0
2016-11-04T02:27:18.885Z,0
2016-11-04T02:27:59.361Z,0
2016-11-04T02:28:39.805Z,0
2016-11-04T02:29:20.324Z,0
2016-11-04T02:30:00.798Z,0
2016-11-04T02:30:41.251Z,0
2016-11-04T02:31:21.748Z,0
2016-11-04T02:32:02.241Z,0
2016-11-04T02:32:42.712Z,0
2016-11-04T02:33:23.221Z,0
2016-11-04T02:34:03.671Z,0
2016-11-04T02:34:44.176Z,0
2016-11-04T02:35:24.691Z,0
2016-11-04T02:36:05.157Z,0
2016-11-04T02:36:45.638Z,0
2016-11-04T02:37:26.141Z,0
2016-11-04T02:38:06.634Z,0
2016-11-04T02:38:47.127Z,0
2016-11-04T02:39:27.608Z,0
2016-11-04T02:40:08.078Z,0
2016-11-04T02:40:48.575Z,0
2016-11-04T02:41:29.047Z,0
2016-11-04T02:42:09.523Z,0
2016-11-04T02:42:50.017Z,0
2016-11-04T02:43:30.498Z,0
2016-11-04T02:44:11.061Z,0
2016-11-04T02:44:51.537Z,0
2016-11-04T02:45:31.965Z,0
2016-11-04T02:46:12.458Z,0
2016-11-04T02:46:52.928Z,0
2016-11-04T02:47:33.416Z,0
2016-11-04T02:48:13.896Z,0
2016-11-04T02:48:54.373Z,0
2016-11-04T02:49:34.870Z,0
2016-11-04T02:50:15.387Z,0
2016-11-04T02:50:55.901Z,0
2016-11-04T02:51:36.376Z,0
2016-11-04T02:52:16.867Z,0
2016-11-04T02:52:57.350Z,0
2016-11-04T02:53:37.839Z,0
2016-11-04T02:54:18.319Z,0
2016-11-04T02:54:58.805Z,0
2016-11-04T02:55:39.283Z,0
2016-11-04T02:56:19.791Z,0
2016-11-04T02:57:00.259Z,0
2016-11-04T02:57:40.741Z,0
2016-11-04T02:58:21.212Z,0
2016-11-04T02:59:01.692Z,0
2016-11-04T02:59:42.182Z,0
2016-11-04T03:00:22.665Z,0
2016-11-04T03:01:03.156Z,0
2016-11-04T03:01:43.616Z,0
2016-11-04T03:02:24.067Z,0
2016-11-04T03:03:04.554Z,0
2016-11-04T03:03:45.068Z,0
2016-11-04T03:04:25.566Z,0
2016-11-04T03:05:06.027Z,0
2016-11-04T03:05:46.527Z,0
2016-11-04T03:06:26.994Z,0
2016-11-04T03:07:07.463Z,0
2016-11-04T03:07:47.931Z,0
2016-11-04T03:08:28.430Z,0
2016-11-04T03:09:08.925Z,0
2016-11-04T03:09:49.425Z,0
2016-11-04T03:10:29.916Z,0
2016-11-04T03:11:10.421Z,0
2016-11-04T03:11:50.895Z,0
2016-11-04T03:12:31.399Z,0
2016-11-04T03:13:11.876Z,0
2016-11-04T03:13:52.364Z,0
2016-11-04T03:14:32.827Z,0
2016-11-04T03:15:13.285Z,0
2016-11-04T03:15:53.802Z,0
2016-11-04T03:16:34.288Z,0
2016-11-04T03:17:14.782Z,0
2016-11-04T03:17:55.295Z,0
2016-11-04T03:18:35.751Z,0
2016-11-04T03:19:16.244Z,0
2016-11-04T03:19:56.710Z,0
2016-11-04T03:20:37.208Z,0
2016-11-04T03:21:17.705Z,0
2016-11-04T03:21:58.185Z,0
2016-11-04T03:22:38.642Z,0
2016-11-04T03:23:19.132Z,0
2016-11-04T03:23:59.611Z,0
2016-11-04T03:24:40.084Z,0
2016-11-04T03:25:20.547Z,0
2016-11-04T03:26:01.033Z,0
2016-11-04T03:26:41.563Z,0
2016-11-04T03:27:22.069Z,0
2016-11-04T03:28:02.574Z,0
2016-11-04T03:28:43.028Z,0
2016-11-04T03:29:23.524Z,0
2016-11-04T03:30:04.059Z,0
2016-11-04T03:30:44.571Z,0
2016-11-04T03:31:25.053Z,0
2016-11-04T03:32:05.527Z,0
2016-11-04T03:32:46.005Z,0
2016-11-04T03:33:26.466Z,0
2016-11-04T03:34:06.959Z,0
2016-11-04T03:34:47.428Z,0
2016-11-04T03:35:27.901Z,0
2016-11-04T03:36:08.396Z,0
2016-11-04T03:36:48.887Z,0
2016-11-04T03:37:29.365Z,0
2016-11-04T03:38:09.844Z,0
2016-11-04T03:38:50.339Z,0
2016-11-04T03:39:30.844Z,0
2016-11-04T03:40:11.362Z,0
2016-11-04T03:40:51.850Z,0
2016-11-04T03:41:32.333Z,0
2016-11-04T03:42:12.826Z,0
2016-11-04T03:42:53.345Z,0
2016-11-04T03:43:33.829Z,0
2016-11-04T03:44:14.296Z,0
2016-11-04T03:44:54.792Z,0
2016-11-04T03:45:35.285Z,0
2016-11-04T03:46:15.753Z,0
2016-11-04T03:46:56.262Z,0
2016-11-04T03:47:36.731Z,0
2016-11-04T03:48:17.225Z,0
2016-11-04T03:48:57.678Z,0
2016-11-04T03:49:38.153Z,0
2016-11-04T03:50:18.598Z,0
2016-11-04T03:50:59.105Z,0
2016-11-04T03:51:39.595Z,0
2016-11-04T03:52:20.047Z,0
2016-11-04T03:53:00.527Z,0
2016-11-04T03:53:40.997Z,0
2016-11-04T03:54:21.453Z,0
2016-11-04T03:55:01.936Z,0
2016-11-04T03:55:42.437Z,0
2016-11-04T03:56:22.894Z,0
2016-11-04T03:57:03.372Z,0
2016-11-04T03:57:43.859Z,0
2016-11-04T03:58:24.350Z,0
2016-11-04T03:59:04.823Z,0
2016-11-04T03:59:45.292Z,0
2016-11-04T04:00:25.805Z,0
2016-11-04T04:01:06.269Z,0
2016-11-04T04:01:46.786Z,0
2016-11-04T04:02:27.281Z,0
2016-11-04T04:03:07.771Z,0
2016-11-04T04:03:48.216Z,0
2016-11-04T04:04:28.723Z,0
2016-11-04T04:05:09.212Z,0
2016-11-04T04:05:49.768Z,0
2016-11-04T04:06:30.251Z,0
2016-11-04T04:07:10.717Z,0
2016-11-04T04:07:51.191Z,0
2016-11-04T04:08:31.688Z,0
2016-11-04T04:09:12.167Z,0
2016-11-04T04:09:52.668Z,0
2016-11-04T04:10:33.115Z,0
2016-11-04T04:11:13.589Z,0
2016-11-04T04:11:54.093Z,0
2016-11-04T04:12:34.572Z,0
2016-11-04T04:13:15.068Z,0
2016-11-04T04:13:58.281Z,0
2016-11-04T04:14:38.792Z,0
2016-11-04T04:15:19.235Z,0
2016-11-04T04:15:59.700Z,0
2016-11-04T04:16:40.178Z,0
2016-11-04T04:17:20.651Z,0
2016-11-04T04:18:01.131Z,0
2016-11-04T04:18:41.586Z,0
2016-11-04T04:19:22.063Z,0
2016-11-04T04:20:02.595Z,0
2016-11-04T04:20:43.028Z,0
2016-11-04T04:21:23.516Z,0
2016-11-04T04:22:03.971Z,0
2016-11-04T04:22:44.470Z,0
2016-11-04T04:23:24.965Z,0
2016-11-04T04:24:05.493Z,0
2016-11-04T04:24:45.981Z,0
2016-11-04T04:25:26.447Z,0
2016-11-04T04:26:06.924Z,0
2016-11-04T04:26:47.386Z,0
2016-11-04T04:27:27.882Z,0
2016-11-04T04:28:08.344Z,0
2016-11-04T04:28:48.857Z,0
2016-11-04T04:29:29.328Z,0
2016-11-04T04:30:09.877Z,0
2016-11-04T04:30:50.354Z,0
2016-11-04T04:31:30.881Z,0
2016-11-04T04:32:11.359Z,0
2016-11-04T04:32:51.841Z,0
2016-11-04T04:33:32.334Z,0
2016-11-04T04:34:12.811Z,0
2016-11-04T04:34:53.301Z,0
2016-11-04T04:35:33.812Z,0
2016-11-04T04:36:14.279Z,0
2016-11-04T04:36:54.777Z,0
2016-11-04T04:37:35.248Z,0
2016-11-04T04:38:15.734Z,0
2016-11-04T04:38:56.249Z,0
2016-11-04T04:39:36.731Z,0
2016-11-04T04:40:17.236Z,0
2016-11-04T04:40:57.686Z,0
2016-11-04T04:41:38.176Z,0
2016-11-04T04:42:18.672Z,0
2016-11-04T04:42:59.144Z,0
2016-11-04T04:43:39.630Z,0
2016-11-04T04:44:20.116Z,0
2016-11-04T04:45:00.594Z,0
2016-11-04T04:45:41.075Z,0
2016-11-04T04:46:21.536Z,0
2016-11-04T04:47:02.050Z,0
2016-11-04T04:47:42.533Z,0
2016-11-04T04:48:23.033Z,0
2016-11-04T04:49:03.559Z,0
2016-11-04T04:49:44.009Z,0
2016-11-04T04:50:24.483Z,0
2016-11-04T04:51:04.983Z,0
2016-11-04T04:51:45.483Z,0
2016-11-04T04:52:25.945Z,0
2016-11-04T04:53:06.436Z,0
2016-11-04T04:53:46.933Z,0
2016-11-04T04:54:27.392Z,0
2016-11-04T04:55:07.846Z,0
2016-11-04T04:55:48.325Z,0
2016-11-04T04:56:28.820Z,0
2016-11-04T04:57:09.321Z,0
2016-11-04T04:57:49.814Z,0
2016-11-04T04:58:30.286Z,0
2016-11-04T04:59:10.779Z,0
2016-11-04T04:59:51.276Z,0
2016-11-04T05:00:31.761Z,0
2016-11-04T05:01:12.268Z,0
2016-11-04T05:01:52.731Z,0
2016-11-04T05:02:33.198Z,0
2016-11-04T05:03:13.652Z,0
2016-11-04T05:03:54.147Z,0
2016-11-04T05:04:34.626Z,0
2016-11-04T05:05:15.096Z,0
2016-11-04T05:05:55.567Z,0
2016-11-04T05:06:36.068Z,0
2016-11-04T05:07:16.576Z,0
2016-11-04T05:07:57.094Z,0
2016-11-04T05:08:37.552Z,0
2016-11-04T05:09:18.036Z,0
2016-11-04T05:09:58.542Z,0
2016-11-04T05:10:39.015Z,0
2016-11-04T05:11:19.508Z,0
2016-11-04T05:11:59.966Z,0
2016-11-04T05:12:40.478Z,0
2016-11-04T05:13:21.040Z,0
2016-11-04T05:14:01.509Z,0
2016-11-04T05:14:41.980Z,0
2016-11-04T05:15:22.463Z,0
2016-11-04T05:16:02.946Z,0
2016-11-04T05:16:43.410Z,0
2016-11-04T05:17:23.902Z,0
2016-11-04T05:18:04.392Z,0
2016-11-04T05:18:44.894Z,0
2016-11-04T05:19:25.383Z,0
2016-11-04T05:20:12.693Z,0
2016-11-04T05:20:53.164Z,0
2016-11-04T05:21:34.479Z,0
2016-11-04T05:22:14.851Z,0
2016-11-04T05:22:55.294Z,0
2016-11-04T05:23:35.799Z,0
2016-11-04T05:24:16.300Z,0
2016-11-04T05:24:56.795Z,0
2016-11-04T05:25:37.327Z,0
2016-11-04T05:26:17.814Z,0
2016-11-04T05:26:58.298Z,0
2016-11-04T05:27:38.796Z,0
2016-11-04T05:28:19.284Z,0
2016-11-04T05:28:59.781Z,0
2016-11-04T05:29:40.278Z,0
2016-11-04T05:30:20.763Z,0
2016-11-04T05:31:01.265Z,0
2016-11-04T05:31:41.765Z,0
2016-11-04T05:32:22.460Z,0
2016-11-04T05:33:02.958Z,0
2016-11-04T05:33:43.417Z,0
2016-11-04T05:34:23.943Z,0
2016-11-04T05:35:04.423Z,0
2016-11-04T05:35:44.930Z,0
2016-11-04T05:36:25.430Z,0
2016-11-04T05:37:05.979Z,0
2016-11-04T05:37:46.433Z,0
2016-11-04T05:38:27.028Z,0
2016-11-04T05:39:07.592Z,0
2016-11-04T05:39:48.093Z,0
2016-11-04T05:40:28.563Z,0
2016-11-04T05:41:09.061Z,0
2016-11-04T05:41:49.524Z,0
2016-11-04T05:42:30.049Z,0
2016-11-04T05:43:10.517Z,0
2016-11-04T05:43:51.073Z,0
2016-11-04T05:46:09.416Z,0
2016-11-04T05:46:49.903Z,0
2016-11-04T05:47:30.391Z,0
2016-11-04T05:48:10.909Z,0
2016-11-04T05:48:51.384Z,0
2016-11-04T05:49:31.856Z,0
2016-11-04T05:50:12.334Z,0
2016-11-04T05:50:52.808Z,0
2016-11-04T05:51:33.300Z,0
2016-11-04T05:52:13.814Z,0
2016-11-04T05:52:54.275Z,0
2016-11-04T05:53:34.777Z,0
2016-11-04T05:54:15.234Z,0
2016-11-04T05:54:55.772Z,0
2016-11-04T05:55:36.231Z,0
2016-11-04T05:56:16.771Z,0
2016-11-04T05:56:57.308Z,0
2016-11-04T05:57:37.836Z,0
2016-11-04T05:58:18.408Z,0
2016-11-04T05:58:58.890Z,0
2016-11-04T05:59:39.377Z,0
2016-11-04T06:00:19.942Z,0
2016-11-04T06:01:00.436Z,0
2016-11-04T06:01:40.931Z,0
2016-11-04T06:02:21.407Z,0
2016-11-04T06:03:01.948Z,0
2016-11-04T06:03:42.427Z,0
2016-11-04T06:04:22.928Z,0
2016-11-04T06:05:03.422Z,0
2016-11-04T06:05:43.962Z,0
2016-11-04T06:06:24.479Z,0
2016-11-04T06:07:04.932Z,0
2016-11-04T06:07:45.424Z,0
2016-11-04T06:08:25.986Z,0
2016-11-04T06:09:06.458Z,0
2016-11-04T06:09:46.959Z,0
2016-11-04T06:10:27.475Z,0
2016-11-04T06:11:07.959Z,0
2016-11-04T06:11:48.473Z,0
2016-11-04T06:12:28.987Z,0
2016-11-04T06:13:09.504Z,0
2016-11-04T06:13:50.073Z,0
2016-11-04T06:14:30.580Z,0
2016-11-04T06:15:11.033Z,0
2016-11-04T06:15:51.509Z,0
2016-11-04T06:16:32.009Z,0
2016-11-04T06:17:12.499Z,0
2016-11-04T06:17:53.021Z,0
2016-11-04T06:20:21.511Z,0
2016-11-04T06:21:01.906Z,0
2016-11-04T06:21:42.405Z,0
2016-11-04T06:22:22.871Z,0
2016-11-04T06:23:03.362Z,0
2016-11-04T06:23:43.839Z,0
2016-11-04T06:24:24.332Z,0
2016-11-04T06:25:04.812Z,0
2016-11-04T06:25:45.302Z,0
2016-11-04T06:26:25.767Z,0
2016-11-04T06:27:06.248Z,0
2016-11-04T06:27:46.734Z,0
2016-11-04T06:28:27.211Z,0
2016-11-04T06:29:07.718Z,0
2016-11-04T06:29:48.179Z,0
2016-11-04T06:30:28.671Z,0
2016-11-04T06:31:09.183Z,0
2016-11-04T06:31:49.636Z,0
2016-11-04T06:32:30.119Z,0
2016-11-04T06:33:10.618Z,0
2016-11-04T06:33:51.097Z,0
2016-11-04T06:34:31.642Z,0
2016-11-04T06:35:12.136Z,0
2016-11-04T06:35:52.615Z,0
2016-11-04T06:36:33.106Z,0
2016-11-04T06:37:13.557Z,0
2016-11-04T06:37:54.045Z,0
2016-11-04T06:38:34.538Z,0
2016-11-04T06:39:14.998Z,0
2016-11-04T06:39:55.481Z,0
2016-11-04T06:40:35.970Z,0
2016-11-04T06:41:16.473Z,0
2016-11-04T06:41:56.976Z,0
2016-11-04T06:42:37.431Z,0
2016-11-04T06:43:17.890Z,0
2016-11-04T06:43:58.375Z,0
2016-11-04T06:44:38.849Z,0
2016-11-04T06:45:19.349Z,0
2016-11-04T06:45:59.841Z,0
2016-11-04T06:46:40.275Z,0
2016-11-04T06:47:20.754Z,0
2016-11-04T06:48:01.237Z,0
2016-11-04T06:48:41.733Z,0
2016-11-04T06:49:22.232Z,0
2016-11-04T06:50:02.703Z,0
2016-11-04T06:50:43.175Z,0
2016-11-04T06:51:23.665Z,0
2016-11-04T06:52:04.116Z,0
2016-11-04T06:52:44.620Z,0
2016-11-04T06:53:25.104Z,0
2016-11-04T06:54:05.618Z,0
2016-11-04T06:54:46.056Z,0
2016-11-04T06:55:26.550Z,0
2016-11-04T06:56:07.004Z,0
2016-11-04T06:56:47.485Z,0
2016-11-04T06:57:27.992Z,0
2016-11-04T06:58:08.489Z,0
2016-11-04T06:58:48.923Z,0
2016-11-04T06:59:29.419Z,0
2016-11-04T07:00:09.893Z,0
2016-11-04T07:00:50.379Z,0
2016-11-04T07:01:30.846Z,0
2016-11-04T07:02:11.475Z,0
2016-11-04T07:02:53.464Z,0
2016-11-04T07:03:33.945Z,0
2016-11-04T07:04:14.441Z,0
2016-11-04T07:04:54.982Z,0
2016-11-04T07:05:35.599Z,5
2016-11-04T07:06:15.995Z,5
2016-11-04T07:06:56.487Z,5
2016-11-04T07:07:36.970Z,5
2016-11-04T07:08:17.641Z,5
2016-11-04T07:08:59.999Z,5
2016-11-04T07:09:40.568Z,5
2016-11-04T07:10:21.056Z,5
2016-11-04T07:11:01.544Z,5
2016-11-04T07:11:42.045Z,5
2016-11-04T07:12:22.928Z,5
2016-11-04T07:13:03.535Z,5
2016-11-04T07:13:43.928Z,5
2016-11-04T07:14:24.446Z,5
2016-11-04T07:15:04.995Z,5
2016-11-04T07:15:45.797Z,5
2016-11-04T07:16:26.270Z,5
2016-11-04T07:17:06.920Z,5
2016-11-04T07:17:47.691Z,5
2016-11-04T07:18:28.096Z,5
2016-11-04T07:19:08.594Z,5
2016-11-04T07:19:50.388Z,5
2016-11-04T07:20:30.751Z,5
2016-11-04T07:21:11.307Z,5
2016-11-04T07:21:52.060Z,5
2016-11-04T07:22:32.571Z,5
2016-11-04T07:23:13.060Z,5
2016-11-04T07:23:53.506Z,5
2016-11-04T07:24:33.991Z,10
2016-11-04T07:25:14.514Z,10
2016-11-04T07:25:55.003Z,15
2016-11-04T07:26:35.483Z,15
2016-11-04T07:27:15.975Z,15
2016-11-04T07:27:56.456Z,15
2016-11-04T07:28:36.946Z,20
2016-11-04T07:29:17.444Z,15
2016-11-04T07:29:57.917Z,15
2016-11-04T07:30:38.482Z,15
2016-11-04T07:31:18.966Z,15
2016-11-04T07:31:59.436Z,15
2016-11-04T07:32:39.932Z,15
2016-11-04T07:33:21.423Z,15
2016-11-04T07:34:01.937Z,15
2016-11-04T07:34:48.327Z,10
2016-11-04T07:35:27.794Z,15
2016-11-04T07:36:08.257Z,15
2016-11-04T07:36:48.757Z,15
2016-11-04T07:37:29.243Z,20
2016-11-04T07:38:09.727Z,15
2016-11-04T07:38:50.243Z,15
2016-11-04T07:39:30.699Z,15
2016-11-04T07:40:11.176Z,10
2016-11-04T07:40:51.657Z,10
2016-11-04T07:41:32.158Z,10
2016-11-04T07:42:14.001Z,10
2016-11-04T07:42:54.472Z,10
2016-11-04T07:43:34.968Z,10
2016-11-04T07:44:15.449Z,10
2016-11-04T07:44:55.965Z,10
2016-11-04T07:45:40.227Z,10
2016-11-04T07:46:20.739Z,10
2016-11-04T07:47:01.235Z,10
2016-11-04T07:47:41.722Z,10
2016-11-04T07:48:22.204Z,10
2016-11-04T07:49:02.698Z,15
2016-11-04T07:49:43.163Z,20
2016-11-04T07:50:23.711Z,25
2016-11-04T07:51:04.188Z,25
2016-11-04T07:53:38.505Z,25
2016-11-04T07:54:19.204Z,25
2016-11-04T07:54:59.661Z,25
2016-11-04T07:55:40.183Z,20
2016-11-04T07:56:20.672Z,20
2016-11-04T07:57:01.186Z,20
2016-11-04T07:57:41.662Z,20
2016-11-04T07:58:22.148Z,25
2016-11-04T07:59:02.637Z,20
2016-11-04T07:59:43.109Z,20
2016-11-04T08:00:23.596Z,20
2016-11-04T08:01:04.105Z,20
2016-11-04T08:01:44.622Z,20
2016-11-04T08:02:25.097Z,20
2016-11-04T08:03:05.648Z,20
2016-11-04T08:03:46.145Z,20
2016-11-04T08:04:26.626Z,15
2016-11-04T08:05:07.112Z,20
2016-11-04T08:05:47.639Z,15
2016-11-04T08:06:28.124Z,20
2016-11-04T08:07:08.607Z,20
2016-11-04T08:09:43.134Z,30
2016-11-04T08:10:23.456Z,30
2016-11-04T08:11:03.909Z,25
2016-11-04T08:11:44.604Z,30
2016-11-04T08:12:25.281Z,35
2016-11-04T08:13:05.746Z,35
2016-11-04T08:13:46.249Z,35
2016-11-04T08:14:26.716Z,30
2016-11-04T08:15:07.242Z,35
2016-11-04T08:15:47.808Z,35
2016-11-04T08:16:28.302Z,40
2016-11-04T08:17:08.836Z,35
2016-11-04T08:17:49.299Z,40
2016-11-04T08:18:29.800Z,35
2016-11-04T08:19:10.437Z,40
2016-11-04T08:19:50.912Z,40
2016-11-04T08:20:31.389Z,40
2016-11-04T08:21:11.885Z,40
2016-11-04T08:21:52.354Z,40
2016-11-04T08:22:32.987Z,40
2016-11-04T08:23:13.550Z,30
2016-11-04T08:23:54.016Z,35
2016-11-04T08:24:34.524Z,35
2016-11-04T08:25:15.018Z,35
2016-11-04T08:25:57.671Z,40
2016-11-04T08:26:38.300Z,35
2016-11-04T08:27:18.817Z,35
2016-11-04T08:28:02.947Z,40
2016-11-04T08:28:43.430Z,30
2016-11-04T08:29:23.920Z,25
2016-11-04T08:31:37.767Z,20
2016-11-04T08:32:18.087Z,20
2016-11-04T08:32:58.544Z,20
2016-11-04T08:33:39.070Z,25
2016-11-04T08:34:19.581Z,30
2016-11-04T08:35:00.075Z,30
2016-11-04T08:35:40.553Z,30
2016-11-04T08:36:25.485Z,35
2016-11-04T08:37:07.257Z,40
2016-11-04T08:37:47.734Z,40
2016-11-04T08:38:28.199Z,45
2016-11-04T08:39:08.714Z,50
2016-11-04T08:39:49.259Z,40
2016-11-04T08:40:29.709Z,35
2016-11-04T08:41:10.200Z,50
2016-11-04T08:41:50.711Z,45
2016-11-04T08:42:31.200Z,35
2016-11-04T08:43:11.666Z,40
2016-11-04T08:43:52.171Z,35
2016-11-04T08:44:32.689Z,35
2016-11-04T08:45:15.128Z,40
2016-11-04T08:45:55.619Z,35
2016-11-04T08:46:36.116Z,35
2016-11-04T08:47:16.612Z,40
2016-11-04T08:47:57.113Z,40
2016-11-04T08:48:37.572Z,40
2016-11-04T08:49:18.041Z,45
2016-11-04T08:49:58.543Z,50
2016-11-04T08:50:39.023Z,45
2016-11-04T08:51:19.521Z,50
2016-11-04T08:52:00.043Z,50
2016-11-04T08:52:40.497Z,55
2016-11-04T08:53:20.963Z,60
2016-11-04T08:54:01.589Z,70
2016-11-04T08:54:42.082Z,70
2016-11-04T08:55:22.785Z,70
2016-11-04T08:56:03.239Z,65
2016-11-04T08:56:43.883Z,70
2016-11-04T08:57:24.753Z,60
2016-11-04T08:58:05.508Z,60
2016-11-04T08:58:46.119Z,55
2016-11-04T08:59:26.607Z,65
2016-11-04T09:00:08.136Z,55
2016-11-04T09:00:48.868Z,50
2016-11-04T09:01:29.312Z,45
2016-11-04T09:02:09.812Z,40
2016-11-04T09:02:50.303Z,40
2016-11-04T09:03:31.126Z,40
2016-11-04T09:04:11.660Z,35
2016-11-04T09:04:52.133Z,40
2016-11-04T09:05:32.617Z,35
2016-11-04T09:06:13.113Z,35
2016-11-04T09:06:53.582Z,35
2016-11-04T09:07:34.073Z,40
2016-11-04T09:08:14.521Z,40
2016-11-04T09:10:28.834Z,40
2016-11-04T09:11:09.166Z,35
2016-11-04T09:11:49.691Z,35
2016-11-04T09:12:30.171Z,35
2016-11-04T09:13:10.651Z,35
2016-11-04T09:13:51.207Z,35
2016-11-04T09:14:31.718Z,35
2016-11-04T09:15:12.202Z,30
2016-11-04T09:15:52.704Z,35
2016-11-04T09:16:33.135Z,30
2016-11-04T09:17:13.653Z,30
2016-11-04T09:17:54.108Z,30
2016-11-04T09:18:34.600Z,30
2016-11-04T09:19:15.615Z,30
2016-11-04T09:19:56.058Z,25
2016-11-04T09:20:36.538Z,35
2016-11-04T09:21:17.023Z,45
2016-11-04T09:21:57.547Z,45
2016-11-04T09:22:38.021Z,40
2016-11-04T09:23:18.495Z,35
2016-11-04T09:23:58.951Z,35
2016-11-04T09:24:39.399Z,35
2016-11-04T09:26:53.867Z,25
2016-11-04T09:27:34.503Z,20
2016-11-04T09:28:14.969Z,20
2016-11-04T09:28:55.531Z,25
2016-11-04T09:29:36.647Z,20
2016-11-04T09:30:18.150Z,20
2016-11-04T09:30:58.646Z,20
2016-11-04T09:31:39.190Z,25
2016-11-04T09:32:19.706Z,25
2016-11-04T09:33:00.255Z,25
2016-11-04T09:33:40.882Z,30
2016-11-04T09:34:21.433Z,30
2016-11-04T09:35:01.910Z,30
2016-11-04T09:35:44.193Z,30
2016-11-04T09:36:24.700Z,35
2016-11-04T09:37:06.126Z,35
2016-11-04T09:37:46.597Z,25
2016-11-04T09:38:27.076Z,35
2016-11-04T09:39:07.617Z,30
2016-11-04T09:39:48.060Z,30
2016-11-04T09:40:28.660Z,25
2016-11-04T09:41:13.538Z,30
2016-11-04T09:41:54.635Z,30
2016-11-04T09:42:40.227Z,30
2016-11-04T09:43:25.067Z,30
2016-11-04T09:44:05.095Z,30
2016-11-04T09:44:45.596Z,25
2016-11-04T09:45:26.057Z,35
2016-11-04T09:46:06.630Z,35
2016-11-04T09:46:47.075Z,45
2016-11-04T09:47:27.590Z,55
2016-11-04T09:48:08.054Z,60
2016-11-04T09:48:48.544Z,65
2016-11-04T09:49:29.024Z,70
2016-11-04T09:50:09.522Z,60
2016-11-04T09:50:50.003Z,55
2016-11-04T09:51:30.525Z,60
2016-11-04T09:52:11.007Z,65
2016-11-04T09:52:51.487Z,65
2016-11-04T09:53:31.968Z,55
2016-11-04T09:54:12.483Z,45
2016-11-04T09:54:52.958Z,40
2016-11-04T09:55:33.534Z,40
2016-11-04T09:56:14.043Z,40
2016-11-04T09:56:54.533Z,45
2016-11-04T09:57:35.000Z,40
2016-11-04T09:58:15.484Z,35
2016-11-04T09:58:56.007Z,35
2016-11-04T09:59:36.567Z,25
2016-11-04T10:00:17.308Z,25
2016-11-04T10:00:57.998Z,35
2016-11-04T10:01:39.543Z,30
2016-11-04T10:02:20.962Z,30
2016-11-04T10:03:02.704Z,35
2016-11-04T10:03:43.173Z,35
2016-11-04T10:04:23.657Z,30
2016-11-04T10:05:04.272Z,30
2016-11-04T10:05:45.284Z,30